Atlantic City International Airport
KACY : now visible

Airfield :











YOU CAN JOIN US ON...

 
LOGIN :

Register | Disclaimer

   EN    FR    IT 

 









Legend :    VFR   Marginal VFR   IFR   Intensive IFR   Very Intensive IFR
Visi :
Ceiling :
>= 8 km
>= 3000ft
5 to 8 km
1000 to 3000 ft
1500m to 5 km
500 to 1000 ft
800 to 1500m
200 to 500 ft
< 800m
< 200 ft
Symbols :   Thunderstorms  Fog  Heavy snow  Heavy precipitations  Wind > 20 kt






- Airport Elevation : 75 ft
- IATA code : ACY


KACY - Atlantic City International

CURRENT METAR :
  • 091354Z 10005KT 10SM FEW020 28/22 A3001 RMK AO2 SLP161 T02830222

EXPIRED METARs :
  • 091254Z 00000KT 10SM FEW007 27/23 A3001 RMK AO2 SLP161 T02720233
  • 091238Z 05003KT 10SM SCT005 27/24 A3001 RMK AO2 T02670239
  • 091204Z 02003KT 1/2SM BKN003 25/23 A3001 RMK AO2 SFC VIS 8 T02500233
  • 091154Z 02003KT 1/8SM OVC002 24/23 A3001 RMK AO2 SFC VIS 8 SLP162 T02440233 10250 20211 53010

TAF KACY
Valid from the 09 at 13:00 until the 10 at 12:00 UTC


091306Z 0913/1012 VRB03KT P6SM SCT006
TEMPO 0913/0914 BKN006
FM091400 11006KT P6SM BKN080
FM100300 10006KT P6SM OVC020
FM100500 09007KT 4SM +SHRA OVC010
FM100900 07010G20KT 4SM +SHRA OVC008
KZDC FIR / North America



MET'MAP, your aeronautical weather chart ! - Copyright ORBIFLY December 2007 - Disclaimer

ORBIFLY MET'MAP TEAM :

Programming & Development : Alexandra Zaïnal
Concept & original design : Baudouin d'Aumeries
Assistance for programming : Marc-Olivier Méhu
Technical & hardware support : Manuel Goepfert

Contact : metmap@orbifly.com




SOURCES & CREDITS :

   NOAA       Earth
Advisory